Time;durP1;ratioP1;P1;durP2;ratioP2;P2;SDS_P1;SDS_P2;PMS_P1;PMS_P2;Temp;Humidity;BMP_temperature;BMP_pressure;BME280_temperature;BME280_humidity;BME280_pressure;Samples;Min_cycle;Max_cycle;Signal;HPM_P1;HPM_P2
2023/04/06 00:00:36;;;;;;;9.00;5.63;;;;;;;14.55;56.23;100494.84;12928025;22;96886;-83
2023/04/06 00:05:39;;;;;;;8.77;5.88;;;;;;;14.42;57.36;100496.38;12928248;22;96642;-83
2023/04/06 00:10:43;;;;;;;10.93;6.53;;;;;;;14.43;56.46;100491.97;12928306;22;96679;-82
2023/04/06 00:16:08;;;;;;;;;;;;;;;;;;;;;
2023/04/06 01:47:05;;;;;;;8.25;5.63;;;;;;;12.98;62.23;100469.16;12863093;22;96704;-83
2023/04/06 01:52:11;;;;;;;9.65;5.72;;;;;;;12.95;62.65;100464.84;12863874;22;96667;-83
2023/04/06 01:57:23;;;;;;;8.95;5.75;;;;;;;12.93;62.92;100461.41;12862864;22;96741;-83
2023/04/06 02:02:33;;;;;;;9.65;5.85;;;;;;;12.88;63.60;100470.50;12862627;22;96725;-84
2023/04/06 02:07:37;;;;;;;8.77;6.13;;;;;;;12.81;64.18;100463.78;12859554;22;96764;-84
2023/04/06 02:12:43;;;;;;;11.70;5.33;;;;;;;13.05;61.72;100470.56;12861186;22;96665;-82
2023/04/06 02:17:48;;;;;;;8.40;5.45;;;;;;;12.82;63.63;100469.00;12862563;22;96681;-83
2023/04/06 02:22:54;;;;;;;9.00;5.80;;;;;;;12.68;63.63;100466.09;12862060;22;96618;-83
2023/04/06 02:28:09;;;;;;;7.35;5.05;;;;;;;12.66;63.12;100462.66;12863567;22;96662;-84
2023/04/06 02:33:15;;;;;;;9.25;5.68;;;;;;;12.77;63.21;100457.78;12865246;22;96610;-83
2023/04/06 02:38:22;;;;;;;5.78;4.60;;;;;;;12.87;61.54;100456.44;12864956;22;96852;-83
2023/04/06 02:43:25;;;;;;;8.95;5.13;;;;;;;12.73;62.56;100456.19;12882961;22;96702;-84
2023/04/06 02:48:36;;;;;;;6.63;4.90;;;;;;;12.46;63.41;100454.75;12928973;22;96769;-83
2023/04/06 02:53:41;;;;;;;8.45;5.53;;;;;;;12.31;65.10;100452.75;12928468;22;96638;-83
2023/04/06 02:58:47;;;;;;;7.97;5.63;;;;;;;12.17;65.05;100442.81;12927749;22;96714;-83
2023/04/06 03:03:59;;;;;;;7.93;5.90;;;;;;;12.22;65.06;100446.09;12928783;22;97145;-81
2023/04/06 03:09:04;;;;;;;10.95;5.65;;;;;;;12.06;65.64;100444.22;12928784;22;96644;-83
2023/04/06 03:14:21;;;;;;;6.97;5.20;;;;;;;12.13;64.36;100440.38;12928823;22;96996;-83
2023/04/06 03:19:39;;;;;;;8.93;5.43;;;;;;;12.27;62.52;100441.50;12928867;22;96698;-82
2023/04/06 03:24:46;;;;;;;8.25;5.60;;;;;;;12.29;62.75;100446.69;12928320;22;96574;-83
2023/04/06 04:34:20;;;;;;;5.07;3.03;;;;;;;13.05;52.04;100413.28;12864924;22;96709;-84
2023/04/06 04:39:32;;;;;;;5.32;3.35;;;;;;;13.05;53.22;100415.09;12863923;22;97425;-84
2023/04/06 04:44:58;;;;;;;5.35;3.67;;;;;;;13.04;53.19;100422.16;12863792;22;96723;-84
2023/04/06 04:50:02;;;;;;;4.88;3.40;;;;;;;12.97;54.14;100438.34;12850818;22;97491;-84
2023/04/06 04:55:08;;;;;;;5.60;3.78;;;;;;;12.77;54.38;100431.38;12863761;22;96747;-84
2023/04/06 05:00:20;;;;;;;6.43;3.42;;;;;;;12.76;54.87;100442.84;12850646;22;96888;-85
2023/04/06 06:26:58;;;;;;;5.72;3.10;;;;;;;12.28;53.59;100521.50;12913331;22;96979;-84
2023/04/06 06:32:07;;;;;;;6.30;3.80;;;;;;;12.06;57.08;100529.47;12865186;22;96822;-84
2023/04/06 06:37:23;;;;;;;5.60;3.45;;;;;;;11.82;57.93;100546.25;12865843;22;96738;-84
2023/04/06 06:42:26;;;;;;;;;;;;;;;11.92;57.77;100552.03;12864101;22;96700;-84
2023/04/06 06:47:34;;;;;;;4.63;3.28;;;;;;;12.79;55.97;100550.13;12865164;22;96693;-83
2023/04/06 12:20:15;;;;;;;3.67;1.10;;;;;;;26.66;14.92;100441.81;12864039;22;96610;-85
2023/04/06 13:35:22;;;;;;;0.90;0.55;;;;;;;26.38;13.61;100334.16;12909144;22;97619;-85
2023/04/06 13:40:31;;;;;;;0.88;0.47;;;;;;;26.12;13.13;100326.03;12926641;22;96615;-86
2023/04/06 13:45:35;;;;;;;2.50;0.70;;;;;;;26.03;14.01;100321.59;12927712;22;96591;-86
2023/04/06 13:50:39;;;;;;;2.00;0.70;;;;;;;25.83;14.31;100307.44;12926835;22;96904;-86
2023/04/06 13:55:44;;;;;;;1.08;0.70;;;;;;;25.51;14.31;100300.88;12926463;22;97029;-85
2023/04/06 14:00:47;;;;;;;4.90;0.63;;;;;;;25.70;14.67;100298.91;12925244;22;97147;-85
2023/04/06 14:06:12;;;;;;;1.70;0.98;;;;;;;25.88;14.91;100290.81;12925938;22;96637;-86
2023/04/06 14:11:33;;;;;;;0.77;0.65;;;;;;;25.84;14.99;100284.88;12926243;22;96634;-84
2023/04/06 14:16:38;;;;;;;0.88;0.70;;;;;;;25.98;14.82;100282.59;12926618;22;97513;-85
2023/04/06 14:21:43;;;;;;;1.10;0.77;;;;;;;25.92;15.35;100267.06;12926594;22;96686;-85
2023/04/06 14:26:46;;;;;;;2.15;0.80;;;;;;;26.00;15.70;100270.66;12927728;22;96731;-85
2023/04/06 14:31:50;;;;;;;1.27;0.97;;;;;;;26.09;15.56;100258.06;12929058;22;96663;-85
2023/04/06 14:36:57;;;;;;;1.75;0.68;;;;;;;25.90;15.34;100248.31;12929641;22;96876;-86
2023/04/06 14:42:04;;;;;;;0.80;0.60;;;;;;;26.01;15.36;100248.06;12928785;22;96872;-85
2023/04/06 14:47:08;;;;;;;8.77;1.23;;;;;;;26.13;15.27;100241.41;12928518;22;96804;-84
2023/04/06 14:52:13;;;;;;;1.08;0.63;;;;;;;26.15;15.23;100242.09;12927807;22;96681;-85
2023/04/06 14:57:18;;;;;;;1.35;0.75;;;;;;;26.20;15.36;100234.38;12928975;22;97115;-86
2023/04/06 15:02:22;;;;;;;1.17;0.67;;;;;;;26.17;15.12;100231.13;12928888;22;97132;-86
2023/04/06 15:07:27;;;;;;;1.23;0.70;;;;;;;26.25;14.57;100229.34;12925269;22;96635;-86
2023/04/06 15:12:33;;;;;;;1.10;0.82;;;;;;;26.28;14.64;100226.31;12928606;22;97328;-84
2023/04/06 15:17:37;;;;;;;2.22;0.60;;;;;;;26.65;14.69;100223.28;12928530;22;96665;-85
2023/04/06 15:22:46;;;;;;;1.63;0.88;;;;;;;26.51;13.87;100207.72;12928589;22;96711;-85
2023/04/06 15:27:51;;;;;;;2.13;0.80;;;;;;;26.62;14.20;100204.72;12929535;22;96644;-86
2023/04/06 15:33:00;;;;;;;1.85;0.98;;;;;;;26.68;14.44;100209.50;12929407;22;96639;-87
2023/04/06 15:38:08;;;;;;;1.95;0.82;;;;;;;26.43;14.41;100195.06;12927362;22;97197;-86
2023/04/06 15:43:17;;;;;;;1.00;0.52;;;;;;;26.51;14.35;100183.41;12927178;22;96671;-86
2023/04/06 15:48:30;;;;;;;;;;;;;;;;;;;;;
2023/04/06 15:53:39;;;;;;;0.98;0.65;;;;;;;26.70;14.33;100186.69;12921486;22;96720;-85
2023/04/06 15:58:46;;;;;;;1.73;0.70;;;;;;;26.59;13.95;100168.09;12928209;22;96619;-86
2023/04/06 16:03:59;;;;;;;;;;;;;;;;;;;;;
2023/04/06 16:09:04;;;;;;;1.98;0.68;;;;;;;26.43;14.38;100168.06;12920747;22;97357;-86
2023/04/06 16:14:08;;;;;;;1.25;0.80;;;;;;;26.41;14.54;100164.69;12928221;22;96640;-86
2023/04/06 16:19:14;;;;;;;1.83;1.25;;;;;;;26.32;14.36;100162.06;12929330;22;96633;-85
2023/04/06 16:24:23;;;;;;;3.28;2.20;;;;;;;26.24;14.81;100154.81;12927731;22;96740;-84
2023/04/06 16:29:27;;;;;;;3.00;1.90;;;;;;;26.18;14.89;100160.00;12928536;22;96990;-85
2023/04/06 16:34:34;;;;;;;3.42;1.40;;;;;;;26.09;14.51;100159.09;12926176;22;99314;-86
2023/04/06 16:39:42;;;;;;;1.58;1.35;;;;;;;25.92;14.26;100155.50;12928203;22;96877;-85
2023/04/06 16:44:47;;;;;;;2.35;1.65;;;;;;;26.01;14.56;100158.22;12926593;22;97372;-86
2023/04/06 16:49:56;;;;;;;;;;;;;;;25.73;14.70;100155.72;12925377;22;96778;-86
2023/04/06 16:55:12;;;;;;;3.55;2.20;;;;;;;25.70;14.85;100157.88;12927770;22;96915;-86
2023/04/06 17:00:16;;;;;;;3.17;1.73;;;;;;;25.72;14.95;100154.03;12927490;22;96629;-86
2023/04/06 17:05:25;;;;;;;4.50;1.90;;;;;;;25.70;14.99;100157.88;12924121;22;96767;-85
2023/04/06 17:10:30;;;;;;;1.92;1.40;;;;;;;25.67;14.52;100153.63;12928638;22;96702;-86
2023/04/06 17:15:43;;;;;;;5.00;1.52;;;;;;;25.66;15.06;100151.06;12927232;22;96936;-86
2023/04/06 17:20:48;;;;;;;3.80;1.30;;;;;;;25.61;15.51;100148.03;12924127;22;96792;-86
2023/04/06 17:25:54;;;;;;;1.90;0.85;;;;;;;25.59;15.49;100147.31;12925314;22;97258;-87
2023/04/06 17:31:00;;;;;;;1.30;0.88;;;;;;;25.45;15.45;100143.38;12927259;22;96730;-86
2023/04/06 17:36:03;;;;;;;;;;;;;;;25.36;17.01;100140.78;12927111;22;96645;-86
2023/04/06 17:41:10;;;;;;;2.38;0.70;;;;;;;25.35;15.78;100148.00;12923568;22;96702;-86
2023/04/06 17:46:14;;;;;;;2.80;1.05;;;;;;;25.28;15.77;100144.25;12926877;22;96634;-87
2023/04/06 17:51:18;;;;;;;1.50;0.80;;;;;;;25.24;16.02;100144.72;12926511;22;97068;-87
2023/04/06 17:56:25;;;;;;;1.40;0.80;;;;;;;25.20;16.17;100148.72;12928934;22;96625;-86
2023/04/06 18:01:30;;;;;;;1.10;0.90;;;;;;;25.16;17.94;100150.88;12930432;22;96659;-86
2023/04/06 18:06:35;;;;;;;2.40;0.88;;;;;;;25.07;17.19;100149.13;12925662;22;96637;-85
2023/04/06 18:11:40;;;;;;;2.85;1.15;;;;;;;24.74;21.61;100156.00;12929632;22;96687;-86
2023/04/06 18:16:49;;;;;;;2.58;0.75;;;;;;;24.22;22.83;100148.66;12926658;22;96686;-86
2023/04/06 18:21:54;;;;;;;1.98;1.02;;;;;;;23.85;24.58;100152.38;12928926;22;96972;-86
2023/04/06 18:27:00;;;;;;;1.23;1.00;;;;;;;23.55;24.91;100156.16;12929236;22;96765;-86
2023/04/06 18:32:03;;;;;;;7.05;1.48;;;;;;;23.21;24.82;100154.91;12929098;22;96776;-86
2023/04/06 18:37:06;;;;;;;2.88;1.67;;;;;;;22.97;26.39;100158.03;12925037;22;96705;-86
2023/04/06 18:42:14;;;;;;;5.18;3.10;;;;;;;22.67;27.40;100152.75;12929038;22;96705;-86
2023/04/06 18:47:22;;;;;;;6.22;2.63;;;;;;;22.22;29.67;100160.44;12929193;22;96752;-86
2023/04/06 18:52:27;;;;;;;4.05;1.77;;;;;;;22.20;27.50;100166.91;12927231;22;96791;-86
2023/04/06 18:57:33;;;;;;;;;;;;;;;21.95;29.13;100175.38;12929556;22;96686;-85
2023/04/06 19:02:38;;;;;;;33.05;25.83;;;;;;;21.80;28.50;100174.88;12928987;22;96609;-86
2023/04/06 19:07:46;;;;;;;10.10;6.60;;;;;;;21.91;26.05;100169.44;12926641;22;97674;-86
2023/04/06 19:12:58;;;;;;;4.00;3.03;;;;;;;21.83;26.01;100182.63;12925936;22;96788;-86
2023/04/06 19:18:03;;;;;;;3.25;2.40;;;;;;;21.70;26.55;100178.47;12928402;22;96767;-85
2023/04/06 19:23:08;;;;;;;3.92;1.60;;;;;;;21.52;26.51;100184.44;12928398;22;96765;-85
2023/04/06 19:28:16;;;;;;;6.47;2.10;;;;;;;21.41;27.32;100199.75;12928793;22;96615;-85
2023/04/06 19:33:22;;;;;;;4.72;2.83;;;;;;;21.24;28.38;100201.16;12928690;22;97053;-85
2023/04/06 19:38:28;;;;;;;6.28;3.35;;;;;;;20.98;29.18;100201.63;12924302;22;96764;-84
2023/04/06 19:43:38;;;;;;;4.63;2.65;;;;;;;20.71;30.16;100210.09;12930044;22;96747;-85
2023/04/06 19:48:43;;;;;;;3.80;2.13;;;;;;;20.55;30.13;100220.31;12928747;22;96687;-85
2023/04/06 19:53:48;;;;;;;3.35;2.17;;;;;;;20.37;30.87;100216.47;12928916;22;96685;-85
2023/04/06 19:58:54;;;;;;;3.08;1.90;;;;;;;20.18;30.84;100219.75;12927064;22;96712;-84
2023/04/06 20:04:00;;;;;;;3.08;1.85;;;;;;;20.24;29.64;100219.25;12928370;22;96535;-85
2023/04/06 20:09:03;;;;;;;3.88;2.13;;;;;;;19.83;32.67;100226.16;12928367;22;96698;-86
2023/04/06 20:14:08;;;;;;;3.88;2.00;;;;;;;19.90;31.09;100232.72;12928215;22;96630;-85
2023/04/06 20:19:11;;;;;;;3.90;2.22;;;;;;;19.69;32.87;100232.56;12928027;22;96679;-86
2023/04/06 20:24:18;;;;;;;4.43;2.35;;;;;;;19.38;33.87;100243.84;12927842;22;97024;-85
2023/04/06 20:29:24;;;;;;;3.83;2.25;;;;;;;19.25;34.71;100256.41;12928241;22;97050;-85
2023/04/06 20:34:28;;;;;;;4.53;2.55;;;;;;;19.20;35.19;100264.75;12927986;22;96823;-85
2023/04/06 20:39:35;;;;;;;4.10;2.50;;;;;;;19.12;35.27;100271.63;12928020;22;97071;-85
2023/04/06 20:44:40;;;;;;;4.53;2.67;;;;;;;18.87;37.23;100280.59;12927274;22;97230;-85
2023/04/06 20:49:49;;;;;;;3.72;2.53;;;;;;;18.60;38.59;100282.59;12926695;22;97217;-85
2023/04/06 20:54:53;;;;;;;4.53;2.60;;;;;;;18.49;37.78;100293.16;12927713;22;96670;-85
2023/04/06 21:00:08;;;;;;;4.43;2.53;;;;;;;18.58;37.70;100294.31;12927675;22;97117;-85
2023/04/06 21:05:11;;;;;;;9.27;2.97;;;;;;;18.30;38.33;100300.72;12927265;22;96832;-85
2023/04/06 21:10:14;;;;;;;5.15;2.95;;;;;;;17.78;40.49;100294.63;12924785;22;96694;-85
2023/04/06 21:15:27;;;;;;;4.70;2.88;;;;;;;18.26;37.48;100295.72;12927233;22;96696;-85
2023/04/06 21:20:38;;;;;;;4.10;2.50;;;;;;;18.33;37.65;100299.66;12926482;22;96815;-85
2023/04/06 21:25:41;;;;;;;;;;;;;;;17.96;38.90;100299.56;12928546;22;96644;-85
2023/04/06 21:30:46;;;;;;;3.22;2.60;;;;;;;18.22;36.58;100300.41;12928842;22;96659;-86
2023/04/06 21:35:49;;;;;;;3.85;2.65;;;;;;;18.37;36.09;100302.00;12906141;22;96883;-86
2023/04/06 21:40:56;;;;;;;5.75;2.85;;;;;;;17.80;38.21;100301.56;12864513;22;97151;-85
2023/04/06 21:46:04;;;;;;;3.75;2.55;;;;;;;17.74;39.72;100304.69;12865913;22;96663;-85
2023/04/06 21:51:08;;;;;;;5.70;3.75;;;;;;;17.79;38.66;100305.22;12866019;22;96960;-85
2023/04/06 21:56:13;;;;;;;5.43;3.10;;;;;;;17.66;40.25;100306.13;12866070;22;96658;-84
2023/04/06 22:01:20;;;;;;;3.60;2.38;;;;;;;17.12;42.78;100307.94;12865632;22;96949;-85
2023/04/06 22:06:28;;;;;;;4.32;2.88;;;;;;;17.29;42.75;100310.38;12865411;22;96628;-84
2023/04/06 22:11:33;;;;;;;4.00;2.97;;;;;;;16.96;44.01;100308.09;12865551;22;96693;-85
2023/04/06 22:16:43;;;;;;;4.03;2.38;;;;;;;16.85;43.99;100318.59;12866079;22;96634;-85
2023/04/06 22:21:50;;;;;;;3.22;2.47;;;;;;;16.66;44.59;100315.41;12865116;22;96614;-85
2023/04/06 22:26:56;;;;;;;3.47;2.30;;;;;;;16.56;44.85;100321.38;12865160;22;96662;-85
2023/04/06 22:32:05;;;;;;;3.78;2.75;;;;;;;16.19;45.79;100313.97;12864651;22;96682;-84
2023/04/06 22:37:14;;;;;;;4.60;2.63;;;;;;;15.99;45.73;100320.50;12865084;22;96874;-85
2023/04/06 22:42:18;;;;;;;3.72;2.40;;;;;;;15.93;46.10;100313.75;12864778;22;97046;-85
2023/04/06 22:47:23;;;;;;;3.33;2.45;;;;;;;15.62;47.42;100311.22;12865108;22;96626;-84
2023/04/06 22:52:44;;;;;;;5.05;2.65;;;;;;;15.44;48.56;100314.94;12865499;22;96677;-85
2023/04/06 22:57:47;;;;;;;4.25;2.63;;;;;;;15.36;47.43;100311.91;12864795;22;96707;-85
2023/04/06 23:02:57;;;;;;;4.47;2.35;;;;;;;15.47;47.50;100306.84;12864968;22;96688;-85
2023/04/06 23:08:01;;;;;;;4.70;2.42;;;;;;;15.42;47.72;100313.34;12852678;22;96734;-84
2023/04/06 23:13:04;;;;;;;3.78;2.38;;;;;;;15.46;47.57;100309.56;12865123;22;97145;-85
2023/04/06 23:18:10;;;;;;;4.75;2.42;;;;;;;15.21;48.15;100310.13;12851894;22;96966;-84
2023/04/06 23:23:15;;;;;;;5.05;2.75;;;;;;;15.02;49.22;100304.16;12863178;22;96801;-84
2023/04/06 23:28:21;;;;;;;4.45;2.60;;;;;;;15.12;48.01;100309.78;12864799;22;96970;-85
2023/04/06 23:33:35;;;;;;;4.45;2.28;;;;;;;15.39;45.65;100309.06;12864230;22;96798;-84
2023/04/06 23:38:39;;;;;;;3.63;2.35;;;;;;;15.60;44.17;100299.00;12924403;22;96792;-85
2023/04/06 23:43:42;;;;;;;3.42;2.10;;;;;;;15.23;47.23;100300.28;12928389;22;96687;-83
2023/04/06 23:48:52;;;;;;;3.33;2.17;;;;;;;15.09;47.57;100294.06;12928333;22;96816;-85
2023/04/06 23:53:56;;;;;;;3.20;1.92;;;;;;;15.18;46.09;100298.84;12928325;22;96952;-85
2023/04/06 23:59:10;;;;;;;4.80;2.10;;;;;;;15.13;46.79;100295.59;12929621;22;96573;-84
